Time;durP1;ratioP1;P1;durP2;ratioP2;P2;SDS_P1;SDS_P2;PMS_P1;PMS_P2;Temp;Humidity;BMP_temperature;BMP_pressure;BME280_temperature;BME280_humidity;BME280_pressure;Samples;Min_cycle;Max_cycle;Signal;HPM_P1;HPM_P2
2023/09/06 00:02:00;;;;;;;7.40;4.57;;;;;;;;;;5013031;28;20029;-77
2023/09/06 00:04:26;;;;;;;8.97;4.30;;;;;;;;;;5014469;28;20263;-76
2023/09/06 00:06:52;;;;;;;4.88;3.78;;;;;;;;;;5015128;28;20266;-76
2023/09/06 00:18:50;;;;;;;7.28;4.15;;;;;;;;;;4894752;29;20043;-76
2023/09/06 00:21:28;;;;;;;;;;;;;;;;;;;;;
2023/09/06 00:28:56;;;;;;;;;;;;;;;;;;;;;
2023/09/06 00:31:28;;;;;;;6.03;4.07;;;;;;;;;;4876693;29;20435;-76
2023/09/06 00:33:53;;;;;;;6.15;4.40;;;;;;;;;;4900192;29;20093;-76
2023/09/06 00:36:19;;;;;;;6.30;4.55;;;;;;;;;;4899906;29;20032;-75
2023/09/06 00:38:44;;;;;;;6.80;4.63;;;;;;;;;;4938192;28;20097;-75
2023/09/06 00:41:10;;;;;;;6.20;4.38;;;;;;;;;;5013999;28;20450;-77
2023/09/06 00:43:40;;;;;;;5.50;4.45;;;;;;;;;;4997283;28;20026;-76
2023/09/06 00:46:14;;;;;;;5.85;4.13;;;;;;;;;;5014679;28;20532;-76
2023/09/06 00:48:44;;;;;;;5.63;4.28;;;;;;;;;;5015454;28;20397;-77
2023/09/06 00:51:10;;;;;;;8.85;4.07;;;;;;;;;;4996829;28;20026;-77
2023/09/06 00:53:54;;;;;;;5.45;4.05;;;;;;;;;;4997830;28;20047;-77
2023/09/06 00:57:01;;;;;;;6.32;4.13;;;;;;;;;;4997820;28;20032;-77
2023/09/06 00:59:54;;;;;;;5.97;4.15;;;;;;;;;;4973000;28;20031;-77
2023/09/06 01:02:23;;;;;;;6.50;4.13;;;;;;;;;;4972803;28;20180;-76
2023/09/06 01:05:01;;;;;;;10.50;3.65;;;;;;;;;;4997443;28;20116;-76
2023/09/06 01:07:29;;;;;;;5.32;4.07;;;;;;;;;;4996688;28;20136;-76
2023/09/06 01:10:02;;;;;;;7.28;4.10;;;;;;;;;;4996602;28;20029;-76
2023/09/06 01:12:40;;;;;;;5.40;4.45;;;;;;;;;;4997028;28;20117;-77
2023/09/06 01:15:06;;;;;;;6.75;4.45;;;;;;;;;;5013490;28;20044;-76
2023/09/06 01:17:55;;;;;;;;;;;;;;;;;;;;;
2023/09/06 01:21:37;;;;;;;7.07;4.55;;;;;;;;;;5014254;28;20026;-77
2023/09/06 01:24:05;;;;;;;9.73;4.70;;;;;;;;;;4934515;29;20195;-76
2023/09/06 01:26:32;;;;;;;7.22;3.95;;;;;;;;;;4934547;29;20036;-77
2023/09/06 01:28:59;;;;;;;5.00;3.85;;;;;;;;;;4993025;28;20113;-75
2023/09/06 01:31:25;;;;;;;7.57;3.97;;;;;;;;;;4994654;28;20065;-76
2023/09/06 01:33:50;;;;;;;8.52;4.15;;;;;;;;;;4995826;28;20481;-76
2023/09/06 01:36:18;;;;;;;6.57;4.28;;;;;;;;;;5013318;28;20032;-76
2023/09/06 01:38:43;;;;;;;6.07;4.00;;;;;;;;;;5013288;28;20030;-77
2023/09/06 01:41:11;;;;;;;6.22;4.05;;;;;;;;;;5013358;28;20017;-78
2023/09/06 01:43:37;;;;;;;5.32;3.88;;;;;;;;;;5013398;28;20026;-76
2023/09/06 01:46:02;;;;;;;5.95;4.07;;;;;;;;;;4995459;28;20088;-76
2023/09/06 01:48:28;;;;;;;7.15;4.28;;;;;;;;;;4996152;28;20026;-76
2023/09/06 01:51:23;;;;;;;6.72;4.10;;;;;;;;;;5014311;28;20018;-76
2023/09/06 01:54:45;;;;;;;7.68;4.05;;;;;;;;;;5016616;28;20037;-76
2023/09/06 01:57:08;;;;;;;5.28;4.18;;;;;;;;;;5020027;28;20033;-76
2023/09/06 01:59:33;;;;;;;6.72;4.20;;;;;;;;;;5020724;28;20493;-76
2023/09/06 02:02:19;;;;;;;6.03;4.05;;;;;;;;;;5021017;28;20033;-77
2023/09/06 02:04:44;;;;;;;5.43;4.07;;;;;;;;;;5019857;28;20060;-76
2023/09/06 02:07:09;;;;;;;6.75;3.95;;;;;;;;;;5003177;28;20544;-76
2023/09/06 02:09:35;;;;;;;7.35;4.32;;;;;;;;;;5002364;28;20025;-76
2023/09/06 02:12:01;;;;;;;9.40;4.60;;;;;;;;;;5020193;28;20038;-76
2023/09/06 02:14:27;;;;;;;6.13;4.30;;;;;;;;;;5020219;28;20746;-76
2023/09/06 02:16:53;;;;;;;7.15;3.95;;;;;;;;;;5020860;28;20432;-76
2023/09/06 02:19:19;;;;;;;5.80;4.10;;;;;;;;;;5020882;28;20096;-76
2023/09/06 02:21:44;;;;;;;6.40;4.10;;;;;;;;;;5003151;28;20172;-77
2023/09/06 02:24:10;;;;;;;5.03;4.13;;;;;;;;;;5021526;28;20052;-77
2023/09/06 02:26:36;;;;;;;6.30;4.05;;;;;;;;;;5019920;28;20251;-77
2023/09/06 02:29:04;;;;;;;5.00;4.28;;;;;;;;;;5019957;28;20026;-77
2023/09/06 02:31:29;;;;;;;7.38;4.18;;;;;;;;;;5019715;28;20029;-76
2023/09/06 02:33:55;;;;;;;5.05;3.90;;;;;;;;;;5020278;28;20536;-77
2023/09/06 02:36:20;;;;;;;6.22;3.88;;;;;;;;;;5002910;28;20030;-77
2023/09/06 02:38:47;;;;;;;7.72;3.85;;;;;;;;;;5021001;28;20474;-76
2023/09/06 02:41:12;;;;;;;5.70;4.43;;;;;;;;;;5004787;28;20022;-77
2023/09/06 02:43:37;;;;;;;4.63;3.75;;;;;;;;;;5022569;28;20026;-77
2023/09/06 02:46:03;;;;;;;6.87;3.60;;;;;;;;;;5021965;28;20496;-77
2023/09/06 02:48:29;;;;;;;4.93;3.72;;;;;;;;;;5020801;28;20361;-76
2023/09/06 02:50:56;;;;;;;5.20;4.10;;;;;;;;;;5020930;28;20061;-76
2023/09/06 02:53:21;;;;;;;7.90;3.90;;;;;;;;;;5020820;28;20040;-78
2023/09/06 02:55:53;;;;;;;5.47;4.03;;;;;;;;;;5023638;28;20030;-77
2023/09/06 02:58:23;;;;;;;7.75;4.18;;;;;;;;;;5030352;28;20033;-78
2023/09/06 03:00:49;;;;;;;7.55;4.38;;;;;;;;;;5013887;28;20034;-78
2023/09/06 03:03:16;;;;;;;5.53;4.13;;;;;;;;;;5014392;28;20040;-78
2023/09/06 03:05:42;;;;;;;7.43;4.38;;;;;;;;;;5030646;28;20421;-77
2023/09/06 03:08:12;;;;;;;7.20;4.45;;;;;;;;;;5030590;28;20373;-78
2023/09/06 03:10:39;;;;;;;7.15;4.20;;;;;;;;;;5029098;28;20029;-78
2023/09/06 03:13:05;;;;;;;7.68;4.47;;;;;;;;;;5024032;28;20117;-78
2023/09/06 03:15:30;;;;;;;5.47;4.20;;;;;;;;;;5006369;28;20038;-77
2023/09/06 03:17:58;;;;;;;6.28;3.95;;;;;;;;;;5023675;28;20108;-78
2023/09/06 03:20:33;;;;;;;8.82;4.00;;;;;;;;;;5029532;28;20029;-78
2023/09/06 03:23:18;;;;;;;8.45;4.20;;;;;;;;;;5030523;28;20024;-78
2023/09/06 03:25:44;;;;;;;7.95;4.05;;;;;;;;;;5029841;28;20101;-78
2023/09/06 03:28:10;;;;;;;7.93;4.07;;;;;;;;;;5030107;28;20022;-78
2023/09/06 03:30:35;;;;;;;7.10;4.40;;;;;;;;;;5012065;28;20096;-78
2023/09/06 03:33:01;;;;;;;5.70;4.00;;;;;;;;;;5029511;28;20076;-78
2023/09/06 03:35:27;;;;;;;6.88;4.60;;;;;;;;;;5029944;28;20050;-79
2023/09/06 03:37:52;;;;;;;8.98;4.28;;;;;;;;;;5029727;28;20026;-78
2023/09/06 03:40:37;;;;;;;7.20;4.75;;;;;;;;;;5029571;28;20026;-78
2023/09/06 03:43:14;;;;;;;6.50;4.65;;;;;;;;;;5029203;28;20034;-77
2023/09/06 03:45:50;;;;;;;5.85;4.38;;;;;;;;;;5030588;28;20057;-78
2023/09/06 03:48:17;;;;;;;6.63;4.45;;;;;;;;;;5013438;28;20029;-78
2023/09/06 03:50:43;;;;;;;5.60;4.18;;;;;;;;;;5028883;28;20049;-78
2023/09/06 03:53:09;;;;;;;8.52;4.53;;;;;;;;;;5028731;28;20053;-78
2023/09/06 03:55:34;;;;;;;6.07;4.63;;;;;;;;;;5028459;28;20030;-78
2023/09/06 03:58:00;;;;;;;7.00;4.30;;;;;;;;;;5009072;28;20136;-78
2023/09/06 04:00:26;;;;;;;8.30;4.63;;;;;;;;;;5023608;28;20022;-78
2023/09/06 04:02:53;;;;;;;7.32;4.65;;;;;;;;;;5024444;28;20046;-78
2023/09/06 04:05:23;;;;;;;6.78;4.57;;;;;;;;;;5026498;28;20065;-78
2023/09/06 04:07:50;;;;;;;9.32;4.45;;;;;;;;;;5027310;28;20025;-78
2023/09/06 04:10:21;;;;;;;7.75;4.20;;;;;;;;;;5026855;28;20370;-77
2023/09/06 04:12:47;;;;;;;6.93;4.45;;;;;;;;;;5010175;28;20030;-78
2023/09/06 04:15:13;;;;;;;6.88;4.47;;;;;;;;;;5027857;28;20120;-78
2023/09/06 04:17:42;;;;;;;7.00;4.60;;;;;;;;;;5027824;28;20022;-78
2023/09/06 04:20:21;;;;;;;6.93;4.43;;;;;;;;;;5028925;28;20030;-78
2023/09/06 04:22:47;;;;;;;6.97;4.38;;;;;;;;;;5028174;28;20044;-78
2023/09/06 04:25:16;;;;;;;5.88;4.53;;;;;;;;;;5026740;28;20052;-78
2023/09/06 04:27:43;;;;;;;7.68;4.50;;;;;;;;;;5027079;28;20114;-78
2023/09/06 04:30:09;;;;;;;5.72;4.03;;;;;;;;;;5026388;28;20022;-78
2023/09/06 04:32:34;;;;;;;5.65;4.45;;;;;;;;;;5026723;28;20038;-78
2023/09/06 04:35:00;;;;;;;6.70;4.50;;;;;;;;;;5027284;28;20032;-78
2023/09/06 04:37:25;;;;;;;5.90;4.10;;;;;;;;;;5026606;28;20029;-78
2023/09/06 04:39:53;;;;;;;9.32;4.72;;;;;;;;;;5009501;28;20064;-78
2023/09/06 04:42:18;;;;;;;6.90;4.35;;;;;;;;;;5008948;28;20030;-78
2023/09/06 04:44:44;;;;;;;8.35;4.70;;;;;;;;;;5026625;28;20029;-78
2023/09/06 04:47:14;;;;;;;5.88;4.38;;;;;;;;;;5028742;28;20026;-78
2023/09/06 04:49:40;;;;;;;9.25;4.68;;;;;;;;;;5026592;28;20044;-78
2023/09/06 04:52:05;;;;;;;8.35;4.70;;;;;;;;;;5027386;28;20399;-77
2023/09/06 04:54:32;;;;;;;8.23;4.65;;;;;;;;;;5027306;28;20081;-78
2023/09/06 04:56:58;;;;;;;6.65;4.57;;;;;;;;;;5027135;28;20048;-78
2023/09/06 04:59:23;;;;;;;10.15;4.85;;;;;;;;;;5020413;28;20025;-77
2023/09/06 05:01:49;;;;;;;5.60;4.47;;;;;;;;;;5019670;28;20072;-77
2023/09/06 05:04:14;;;;;;;7.47;4.60;;;;;;;;;;4998682;28;20233;-75
2023/09/06 05:06:40;;;;;;;7.03;4.70;;;;;;;;;;4998479;28;20247;-77
2023/09/06 05:09:07;;;;;;;6.15;4.30;;;;;;;;;;4999179;28;20026;-77
2023/09/06 05:11:32;;;;;;;5.75;4.28;;;;;;;;;;5000194;28;20030;-77
2023/09/06 05:13:57;;;;;;;6.85;4.90;;;;;;;;;;5019559;28;20029;-78
2023/09/06 05:16:22;;;;;;;6.22;4.18;;;;;;;;;;5003666;28;20041;-77
2023/09/06 05:18:48;;;;;;;9.43;4.80;;;;;;;;;;5020294;28;20038;-77
2023/09/06 05:21:13;;;;;;;9.77;4.30;;;;;;;;;;5018924;28;20156;-77
2023/09/06 05:23:38;;;;;;;7.90;4.60;;;;;;;;;;5019572;28;20037;-77
2023/09/06 05:26:04;;;;;;;10.32;4.93;;;;;;;;;;5002491;28;20346;-77
2023/09/06 05:28:29;;;;;;;6.43;4.38;;;;;;;;;;5003442;28;20403;-78
2023/09/06 05:30:54;;;;;;;6.90;4.47;;;;;;;;;;5021476;28;20030;-78
2023/09/06 05:33:19;;;;;;;7.38;4.88;;;;;;;;;;5021330;28;20703;-76
2023/09/06 05:35:45;;;;;;;9.45;4.70;;;;;;;;;;5018336;28;20022;-77
2023/09/06 05:38:10;;;;;;;8.67;4.57;;;;;;;;;;5017227;28;20025;-77
2023/09/06 05:40:35;;;;;;;10.68;6.25;;;;;;;;;;5018743;28;20263;-77
2023/09/06 05:43:01;;;;;;;10.48;4.90;;;;;;;;;;5002242;28;20022;-77
2023/09/06 05:45:27;;;;;;;9.38;4.55;;;;;;;;;;5002871;28;20072;-77
2023/09/06 05:47:52;;;;;;;11.07;4.80;;;;;;;;;;5021170;28;20029;-77
2023/09/06 05:50:18;;;;;;;6.60;4.60;;;;;;;;;;5002540;28;20045;-77
2023/09/06 05:52:44;;;;;;;5.90;4.20;;;;;;;;;;5021317;28;20046;-77
2023/09/06 05:55:12;;;;;;;6.07;4.22;;;;;;;;;;5004132;28;20026;-77
2023/09/06 05:57:38;;;;;;;6.72;4.18;;;;;;;;;;5020420;28;20396;-76
2023/09/06 06:00:12;;;;;;;7.90;4.25;;;;;;;;;;5002173;28;20117;-78
2023/09/06 06:02:38;;;;;;;8.82;4.43;;;;;;;;;;5019896;28;20030;-77
2023/09/06 06:05:03;;;;;;;8.35;4.32;;;;;;;;;;5022862;28;20033;-77
2023/09/06 06:07:28;;;;;;;7.38;4.20;;;;;;;;;;5021377;28;20030;-77
2023/09/06 06:09:54;;;;;;;6.43;4.63;;;;;;;;;;5020289;28;20018;-78
2023/09/06 06:12:22;;;;;;;7.67;4.60;;;;;;;;;;5020996;28;20034;-78
2023/09/06 06:14:54;;;;;;;6.63;4.47;;;;;;;;;;5018853;28;20278;-77
2023/09/06 06:17:19;;;;;;;9.30;4.57;;;;;;;;;;5000481;28;20050;-77
2023/09/06 06:19:47;;;;;;;6.57;4.90;;;;;;;;;;5017178;28;20022;-77
2023/09/06 06:22:12;;;;;;;7.03;4.43;;;;;;;;;;4999594;28;20029;-77
2023/09/06 06:24:37;;;;;;;8.50;4.33;;;;;;;;;;5016344;28;20086;-77
2023/09/06 06:27:04;;;;;;;8.07;4.30;;;;;;;;;;5017089;28;20259;-79
2023/09/06 06:29:29;;;;;;;8.20;4.18;;;;;;;;;;5019186;28;20022;-78
2023/09/06 06:31:55;;;;;;;9.93;4.22;;;;;;;;;;5019840;28;20512;-79
2023/09/06 06:34:20;;;;;;;8.20;4.20;;;;;;;;;;5001886;28;20030;-77
2023/09/06 06:36:46;;;;;;;6.45;4.25;;;;;;;;;;5017237;28;20121;-77
2023/09/06 06:39:12;;;;;;;6.95;4.05;;;;;;;;;;4999928;28;20452;-77
2023/09/06 06:41:38;;;;;;;6.50;4.22;;;;;;;;;;5020100;28;20117;-77
2023/09/06 06:44:03;;;;;;;10.90;4.47;;;;;;;;;;5021169;28;20022;-78
2023/09/06 06:46:30;;;;;;;6.22;4.10;;;;;;;;;;5019030;28;20025;-76
2023/09/06 06:48:56;;;;;;;10.10;4.10;;;;;;;;;;5016015;28;20481;-76
2023/09/06 06:51:35;;;;;;;8.43;4.00;;;;;;;;;;4999342;28;20022;-76
2023/09/06 06:54:09;;;;;;;6.03;4.22;;;;;;;;;;4997668;28;20030;-76
2023/09/06 06:56:36;;;;;;;5.85;3.85;;;;;;;;;;4998519;28;20104;-77
2023/09/06 06:59:02;;;;;;;6.60;4.63;;;;;;;;;;5015090;28;20046;-76
2023/09/06 07:01:28;;;;;;;5.88;4.18;;;;;;;;;;5015533;28;20029;-77
2023/09/06 07:03:54;;;;;;;8.65;4.28;;;;;;;;;;5015183;28;20022;-78
2023/09/06 07:06:24;;;;;;;7.80;4.20;;;;;;;;;;5015335;28;20028;-77
2023/09/06 07:08:50;;;;;;;7.03;4.03;;;;;;;;;;4997891;28;20472;-76
2023/09/06 07:11:16;;;;;;;8.35;3.95;;;;;;;;;;4998041;28;20109;-76
2023/09/06 07:13:42;;;;;;;6.93;3.95;;;;;;;;;;4998078;28;20489;-76
2023/09/06 07:16:07;;;;;;;5.85;3.65;;;;;;;;;;4997899;28;20383;-76
2023/09/06 07:18:34;;;;;;;6.18;3.90;;;;;;;;;;5016375;28;20062;-77
2023/09/06 07:20:59;;;;;;;9.27;4.05;;;;;;;;;;5015620;28;20504;-76
2023/09/06 07:23:26;;;;;;;5.75;3.78;;;;;;;;;;5015695;28;20030;-76
2023/09/06 07:25:52;;;;;;;5.25;3.50;;;;;;;;;;5015481;28;20025;-77
2023/09/06 07:28:17;;;;;;;6.13;3.95;;;;;;;;;;4996508;28;20052;-77
2023/09/06 07:30:43;;;;;;;7.88;4.57;;;;;;;;;;4997492;28;20121;-77
2023/09/06 07:33:08;;;;;;;5.80;3.65;;;;;;;;;;5015187;28;20041;-76
2023/09/06 07:35:34;;;;;;;7.60;3.90;;;;;;;;;;5015280;28;20482;-76
2023/09/06 07:38:00;;;;;;;9.60;3.70;;;;;;;;;;4997527;28;20030;-76
2023/09/06 07:40:26;;;;;;;4.82;3.60;;;;;;;;;;5015208;28;20053;-76
2023/09/06 07:42:52;;;;;;;9.50;3.38;;;;;;;;;;4997603;28;20485;-76
2023/09/06 07:45:17;;;;;;;7.78;3.72;;;;;;;;;;5015281;28;20481;-74
2023/09/06 07:47:43;;;;;;;6.45;3.50;;;;;;;;;;5015374;28;20029;-76
2023/09/06 07:50:11;;;;;;;4.93;3.40;;;;;;;;;;4998105;28;20057;-75
2023/09/06 07:52:37;;;;;;;5.70;3.63;;;;;;;;;;5014596;28;20028;-76
2023/09/06 07:55:04;;;;;;;4.85;3.15;;;;;;;;;;5015029;28;20034;-75
2023/09/06 07:57:29;;;;;;;5.70;3.30;;;;;;;;;;5015849;28;20026;-75
2023/09/06 07:59:55;;;;;;;31.87;3.77;;;;;;;;;;5016322;28;20073;-80
2023/09/06 08:02:21;;;;;;;8.38;3.40;;;;;;;;;;4998993;28;20321;-75
2023/09/06 08:04:46;;;;;;;7.75;3.40;;;;;;;;;;5016971;28;20508;-76
2023/09/06 08:07:11;;;;;;;4.60;3.10;;;;;;;;;;5022245;28;20045;-76
2023/09/06 08:09:38;;;;;;;5.07;3.43;;;;;;;;;;5003121;28;20022;-77
2023/09/06 08:12:05;;;;;;;6.57;3.25;;;;;;;;;;5000310;28;20258;-76
2023/09/06 08:14:30;;;;;;;4.70;3.22;;;;;;;;;;5018196;28;20037;-78
2023/09/06 08:16:56;;;;;;;5.25;2.97;;;;;;;;;;5017723;28;20037;-76
2023/09/06 08:19:21;;;;;;;5.15;3.65;;;;;;;;;;5016847;28;20099;-75
2023/09/06 08:21:46;;;;;;;6.47;3.60;;;;;;;;;;4999964;28;20022;-78
2023/09/06 08:24:11;;;;;;;6.50;3.30;;;;;;;;;;5017630;28;20030;-77
2023/09/06 08:26:37;;;;;;;4.82;3.42;;;;;;;;;;5017498;28;20036;-77
2023/09/06 08:29:04;;;;;;;4.80;3.35;;;;;;;;;;5000720;28;20477;-77
2023/09/06 08:31:29;;;;;;;11.05;2.97;;;;;;;;;;4999734;28;20109;-77
2023/09/06 08:33:54;;;;;;;10.57;3.30;;;;;;;;;;5018056;28;20068;-77
2023/09/06 08:36:20;;;;;;;6.27;3.33;;;;;;;;;;5019014;28;20038;-77
2023/09/06 08:38:45;;;;;;;4.32;3.00;;;;;;;;;;5000085;28;20263;-76
2023/09/06 08:41:11;;;;;;;6.43;3.27;;;;;;;;;;5017633;28;20417;-76
2023/09/06 08:43:41;;;;;;;4.28;3.20;;;;;;;;;;5016995;28;20259;-77
2023/09/06 08:46:16;;;;;;;4.47;3.13;;;;;;;;;;5018622;28;20112;-76
2023/09/06 08:48:43;;;;;;;5.35;3.15;;;;;;;;;;5017858;28;20061;-76
2023/09/06 08:51:11;;;;;;;4.85;3.13;;;;;;;;;;5017888;28;20470;-77
2023/09/06 08:53:42;;;;;;;6.28;3.03;;;;;;;;;;5016664;28;20056;-77
2023/09/06 08:56:08;;;;;;;11.70;2.88;;;;;;;;;;4998615;28;20046;-77
2023/09/06 08:58:34;;;;;;;4.95;3.97;;;;;;;;;;5000855;28;20025;-76
2023/09/06 09:01:00;;;;;;;4.35;2.55;;;;;;;;;;5017716;28;20026;-77
2023/09/06 09:03:25;;;;;;;10.50;3.00;;;;;;;;;;5017493;28;20033;-77
2023/09/06 09:05:50;;;;;;;5.90;2.83;;;;;;;;;;5000692;28;20049;-77
2023/09/06 09:08:15;;;;;;;3.87;2.63;;;;;;;;;;5000548;28;20504;-76
2023/09/06 09:10:42;;;;;;;4.30;2.87;;;;;;;;;;5018662;28;20291;-77
2023/09/06 09:13:11;;;;;;;6.82;2.85;;;;;;;;;;4999980;28;20309;-77
2023/09/06 09:15:37;;;;;;;4.65;2.90;;;;;;;;;;5016164;28;20029;-77
2023/09/06 09:18:12;;;;;;;5.65;2.80;;;;;;;;;;5001728;28;20024;-77
2023/09/06 09:20:40;;;;;;;3.72;2.47;;;;;;;;;;5001066;28;20393;-77
2023/09/06 09:23:10;;;;;;;5.85;2.83;;;;;;;;;;5018242;28;20495;-77
2023/09/06 09:25:45;;;;;;;6.35;2.97;;;;;;;;;;5018380;28;20030;-77
2023/09/06 09:28:14;;;;;;;4.35;2.80;;;;;;;;;;5019167;28;20021;-77
2023/09/06 09:30:39;;;;;;;3.65;2.80;;;;;;;;;;5016214;28;20113;-77
2023/09/06 09:33:05;;;;;;;4.38;2.72;;;;;;;;;;5016622;28;20046;-76
2023/09/06 09:35:31;;;;;;;4.85;2.70;;;;;;;;;;5016917;28;20038;-77
2023/09/06 09:37:56;;;;;;;5.15;3.08;;;;;;;;;;5016493;28;20038;-77
2023/09/06 09:40:32;;;;;;;4.65;2.90;;;;;;;;;;5016487;28;20475;-77
2023/09/06 09:42:59;;;;;;;4.00;2.58;;;;;;;;;;5019459;28;20057;-78
2023/09/06 09:45:26;;;;;;;8.10;3.05;;;;;;;;;;5019474;28;20076;-78
2023/09/06 09:47:54;;;;;;;3.70;2.70;;;;;;;;;;5014069;28;20025;-77
2023/09/06 09:50:25;;;;;;;4.47;3.10;;;;;;;;;;4999509;28;20030;-78
2023/09/06 09:52:51;;;;;;;2.60;2.40;;;;;;;;;;5016396;28;20030;-77
2023/09/06 09:55:20;;;;;;;4.05;2.65;;;;;;;;;;5015941;28;20030;-77
2023/09/06 09:57:46;;;;;;;10.00;2.30;;;;;;;;;;4997672;28;20033;-78
2023/09/06 10:00:13;;;;;;;5.65;2.50;;;;;;;;;;5014021;28;20021;-77
2023/09/06 10:02:41;;;;;;;4.97;2.80;;;;;;;;;;5013216;28;20026;-77
2023/09/06 10:05:16;;;;;;;4.18;2.83;;;;;;;;;;5013746;28;20440;-76
2023/09/06 10:07:42;;;;;;;4.60;2.60;;;;;;;;;;4994579;28;20370;-77
2023/09/06 10:10:11;;;;;;;3.50;2.38;;;;;;;;;;5013725;28;20114;-76
2023/09/06 10:12:45;;;;;;;3.63;2.70;;;;;;;;;;5013142;28;20021;-76
2023/09/06 10:15:15;;;;;;;3.25;2.60;;;;;;;;;;5014955;28;20032;-76
2023/09/06 10:17:41;;;;;;;3.72;2.83;;;;;;;;;;5016954;28;20505;-78
2023/09/06 10:20:15;;;;;;;5.68;2.53;;;;;;;;;;4997741;28;20021;-78
2023/09/06 10:22:43;;;;;;;9.05;3.88;;;;;;;;;;5016248;28;20018;-77
2023/09/06 10:25:10;;;;;;;4.13;2.80;;;;;;;;;;5015387;28;20401;-77
2023/09/06 10:27:44;;;;;;;2.67;2.05;;;;;;;;;;4997772;28;20568;-77
2023/09/06 10:30:11;;;;;;;4.88;2.50;;;;;;;;;;5000507;28;20424;-78
2023/09/06 10:32:41;;;;;;;4.30;2.45;;;;;;;;;;5002974;28;20034;-79
2023/09/06 10:35:29;;;;;;;3.50;2.55;;;;;;;;;;5003252;28;20025;-79
2023/09/06 10:38:15;;;;;;;6.30;2.30;;;;;;;;;;5020094;28;20503;-78
2023/09/06 10:40:49;;;;;;;4.10;2.67;;;;;;;;;;5018789;28;20029;-76
2023/09/06 10:43:57;;;;;;;6.15;2.40;;;;;;;;;;4998496;28;20029;-75
2023/09/06 10:46:26;;;;;;;5.10;2.30;;;;;;;;;;4988200;28;20045;-76
2023/09/06 10:49:10;;;;;;;3.65;2.50;;;;;;;;;;4998486;28;20045;-77
2023/09/06 10:51:58;;;;;;;3.38;2.20;;;;;;;;;;5013018;28;20044;-75
2023/09/06 10:54:24;;;;;;;3.80;2.50;;;;;;;;;;4997685;28;20117;-76
2023/09/06 10:56:57;;;;;;;4.03;2.45;;;;;;;;;;5015744;28;20478;-76
2023/09/06 10:59:22;;;;;;;5.18;2.30;;;;;;;;;;5015654;28;20029;-77
2023/09/06 11:02:27;;;;;;;4.82;2.20;;;;;;;;;;5015876;28;20043;-76
2023/09/06 11:05:29;;;;;;;2.95;2.13;;;;;;;;;;5015878;28;20025;-76
2023/09/06 11:07:55;;;;;;;4.90;2.10;;;;;;;;;;4998239;28;20439;-76
2023/09/06 11:10:24;;;;;;;7.55;2.25;;;;;;;;;;5015699;28;20080;-76
2023/09/06 11:12:53;;;;;;;3.05;1.98;;;;;;;;;;5015977;28;20113;-76
2023/09/06 11:15:19;;;;;;;5.80;2.30;;;;;;;;;;5015727;28;20052;-76
2023/09/06 11:17:44;;;;;;;2.65;2.20;;;;;;;;;;4998755;28;20473;-79
2023/09/06 11:20:13;;;;;;;3.57;1.77;;;;;;;;;;5015631;28;20022;-76
2023/09/06 11:22:49;;;;;;;2.55;1.95;;;;;;;;;;5015724;28;20726;-77
2023/09/06 11:25:19;;;;;;;2.58;1.85;;;;;;;;;;5015608;28;20044;-76
2023/09/06 11:27:46;;;;;;;3.10;2.10;;;;;;;;;;4997313;28;20040;-76
2023/09/06 11:30:21;;;;;;;3.42;2.10;;;;;;;;;;5015543;28;20161;-76
2023/09/06 11:32:51;;;;;;;2.10;1.77;;;;;;;;;;5017902;28;20481;-76
2023/09/06 11:35:27;;;;;;;2.75;1.73;;;;;;;;;;5020569;28;20088;-76
2023/09/06 11:37:54;;;;;;;2.65;2.10;;;;;;;;;;4999524;28;20028;-78
2023/09/06 11:40:21;;;;;;;2.67;1.88;;;;;;;;;;5018709;28;20094;-76
2023/09/06 11:42:59;;;;;;;3.95;1.98;;;;;;;;;;5016079;28;20026;-75
2023/09/06 11:45:26;;;;;;;4.97;2.30;;;;;;;;;;5014858;28;20393;-75
2023/09/06 11:47:53;;;;;;;4.05;2.17;;;;;;;;;;5015085;28;20115;-75
2023/09/06 11:50:19;;;;;;;3.30;2.00;;;;;;;;;;5013553;28;20489;-76
2023/09/06 11:52:46;;;;;;;4.13;2.10;;;;;;;;;;4995380;28;20037;-76
2023/09/06 11:55:16;;;;;;;3.80;2.15;;;;;;;;;;5015040;28;20464;-75
2023/09/06 11:57:46;;;;;;;2.97;2.00;;;;;;;;;;5015191;28;20024;-75
2023/09/06 12:00:25;;;;;;;6.50;2.00;;;;;;;;;;5014929;28;20049;-75
2023/09/06 12:02:51;;;;;;;2.97;1.85;;;;;;;;;;5015404;28;20585;-76
2023/09/06 12:05:22;;;;;;;2.80;1.95;;;;;;;;;;5015082;28;20042;-75
2023/09/06 12:07:49;;;;;;;6.10;2.10;;;;;;;;;;4997332;28;20026;-74
2023/09/06 12:10:18;;;;;;;6.35;2.20;;;;;;;;;;4996902;28;20057;-75
2023/09/06 12:12:43;;;;;;;3.10;2.30;;;;;;;;;;5015249;28;20053;-76
2023/09/06 12:15:14;;;;;;;3.33;2.03;;;;;;;;;;5014469;28;20401;-75
2023/09/06 12:17:41;;;;;;;5.15;2.40;;;;;;;;;;5014525;28;20343;-75
2023/09/06 12:20:10;;;;;;;3.38;2.20;;;;;;;;;;5014194;28;20100;-75
2023/09/06 12:22:35;;;;;;;4.18;2.20;;;;;;;;;;4996943;28;20030;-75
2023/09/06 12:25:01;;;;;;;6.70;2.30;;;;;;;;;;5014285;28;20125;-75
2023/09/06 12:27:28;;;;;;;5.22;2.35;;;;;;;;;;5014941;28;20026;-76
2023/09/06 12:29:54;;;;;;;3.70;2.20;;;;;;;;;;4996783;28;20394;-76
2023/09/06 12:32:19;;;;;;;6.15;2.05;;;;;;;;;;5014199;28;20026;-75
2023/09/06 12:34:45;;;;;;;4.25;2.25;;;;;;;;;;4996828;28;20436;-75
2023/09/06 12:37:10;;;;;;;6.22;2.45;;;;;;;;;;5014078;28;20030;-74
2023/09/06 12:39:36;;;;;;;4.33;2.23;;;;;;;;;;5013913;28;20497;-75
2023/09/06 12:42:01;;;;;;;5.43;2.55;;;;;;;;;;5014692;28;20274;-76
2023/09/06 12:44:26;;;;;;;3.38;2.28;;;;;;;;;;5013919;28;20026;-76
2023/09/06 12:46:52;;;;;;;6.15;2.35;;;;;;;;;;5014124;28;20149;-75
2023/09/06 12:49:17;;;;;;;6.00;2.80;;;;;;;;;;5014022;28;20029;-75
2023/09/06 12:51:47;;;;;;;4.13;2.63;;;;;;;;;;5013911;28;20033;-75
2023/09/06 12:54:13;;;;;;;5.47;2.50;;;;;;;;;;5015063;28;20540;-76
2023/09/06 12:56:38;;;;;;;4.63;2.43;;;;;;;;;;4996382;28;20117;-75
2023/09/06 12:59:04;;;;;;;4.45;2.70;;;;;;;;;;5013717;28;20684;-75
2023/09/06 13:01:29;;;;;;;4.28;2.60;;;;;;;;;;5013780;28;20096;-75
2023/09/06 13:03:55;;;;;;;3.42;2.20;;;;;;;;;;5014337;28;20093;-75
2023/09/06 13:06:20;;;;;;;4.63;2.33;;;;;;;;;;5013817;28;20068;-75
2023/09/06 13:08:50;;;;;;;6.77;2.90;;;;;;;;;;5013928;28;20540;-75
2023/09/06 13:11:15;;;;;;;4.95;2.67;;;;;;;;;;5014435;28;20275;-75
2023/09/06 13:13:41;;;;;;;4.90;2.65;;;;;;;;;;4996408;28;20116;-75
2023/09/06 13:16:06;;;;;;;4.65;2.95;;;;;;;;;;5013672;28;20022;-75
2023/09/06 13:18:32;;;;;;;7.35;2.85;;;;;;;;;;5014726;28;20026;-76
2023/09/06 13:20:58;;;;;;;6.88;2.67;;;;;;;;;;4996416;28;20021;-75
2023/09/06 13:23:23;;;;;;;4.03;2.83;;;;;;;;;;5014075;28;20053;-75
2023/09/06 13:25:48;;;;;;;3.47;2.55;;;;;;;;;;5013598;28;20448;-75
2023/09/06 13:28:13;;;;;;;8.13;2.58;;;;;;;;;;4996415;28;20028;-75
2023/09/06 13:30:39;;;;;;;3.53;2.60;;;;;;;;;;5013722;28;20048;-75
2023/09/06 13:33:04;;;;;;;5.67;2.63;;;;;;;;;;4995877;28;20263;-75
2023/09/06 13:35:29;;;;;;;4.95;2.28;;;;;;;;;;4995705;28;20268;-75
2023/09/06 13:37:56;;;;;;;6.57;2.60;;;;;;;;;;5013546;28;20033;-75
2023/09/06 13:40:22;;;;;;;3.70;2.30;;;;;;;;;;4995626;28;20458;-75
2023/09/06 13:42:47;;;;;;;4.88;2.28;;;;;;;;;;5013276;28;20028;-75
2023/09/06 13:45:12;;;;;;;4.78;3.15;;;;;;;;;;5013373;28;20045;-74
2023/09/06 13:47:37;;;;;;;4.60;2.80;;;;;;;;;;5013141;28;20025;-75
2023/09/06 13:50:04;;;;;;;3.83;2.40;;;;;;;;;;5012481;28;20076;-75
2023/09/06 13:52:30;;;;;;;7.45;2.95;;;;;;;;;;4995391;28;20266;-75
2023/09/06 13:54:55;;;;;;;3.38;2.30;;;;;;;;;;5012978;28;20021;-75
2023/09/06 13:57:20;;;;;;;5.65;2.25;;;;;;;;;;4995207;28;20117;-75
2023/09/06 13:59:46;;;;;;;3.92;2.75;;;;;;;;;;5012799;28;20037;-75
2023/09/06 14:02:11;;;;;;;3.27;2.33;;;;;;;;;;4995555;28;20057;-75
2023/09/06 14:04:37;;;;;;;3.57;2.30;;;;;;;;;;5012979;28;20267;-75
2023/09/06 14:07:02;;;;;;;6.18;2.63;;;;;;;;;;4995247;28;20782;-75
2023/09/06 14:09:28;;;;;;;5.40;2.30;;;;;;;;;;4995011;28;20030;-75
2023/09/06 14:11:53;;;;;;;3.28;2.55;;;;;;;;;;5012781;28;20109;-75
2023/09/06 14:14:18;;;;;;;3.77;2.27;;;;;;;;;;5012638;28;20065;-75
2023/09/06 14:16:44;;;;;;;3.57;2.50;;;;;;;;;;4994942;28;20259;-75
2023/09/06 14:19:11;;;;;;;5.97;2.50;;;;;;;;;;5012880;28;20260;-76
2023/09/06 14:21:38;;;;;;;4.85;2.45;;;;;;;;;;5012988;28;20032;-75
2023/09/06 14:24:04;;;;;;;3.55;2.40;;;;;;;;;;4994914;28;20057;-75
2023/09/06 14:26:29;;;;;;;3.30;2.45;;;;;;;;;;5012622;28;20049;-75
2023/09/06 14:28:55;;;;;;;3.50;2.60;;;;;;;;;;5013330;28;20374;-75
2023/09/06 14:31:20;;;;;;;2.92;2.53;;;;;;;;;;5013096;28;20279;-75
2023/09/06 14:33:46;;;;;;;3.80;2.53;;;;;;;;;;5012863;28;20079;-75
2023/09/06 14:36:11;;;;;;;3.28;2.45;;;;;;;;;;5014227;28;20267;-75
2023/09/06 14:38:36;;;;;;;3.23;2.47;;;;;;;;;;5012989;28;20439;-75
2023/09/06 14:41:03;;;;;;;3.80;2.60;;;;;;;;;;4995662;28;20268;-75
2023/09/06 14:43:28;;;;;;;3.90;2.90;;;;;;;;;;5012845;28;20152;-75
2023/09/06 14:46:04;;;;;;;3.85;2.55;;;;;;;;;;4995303;28;20053;-75
2023/09/06 14:48:30;;;;;;;3.90;2.55;;;;;;;;;;4995441;28;20401;-75
2023/09/06 14:50:59;;;;;;;2.88;2.30;;;;;;;;;;5012352;28;20722;-75
2023/09/06 14:53:25;;;;;;;5.63;2.40;;;;;;;;;;5012433;28;20473;-75
2023/09/06 14:55:51;;;;;;;6.32;3.13;;;;;;;;;;5012498;28;20076;-75
2023/09/06 14:58:16;;;;;;;4.15;2.35;;;;;;;;;;4994913;28;20030;-75
2023/09/06 15:00:41;;;;;;;5.07;2.58;;;;;;;;;;5012636;28;20030;-75
2023/09/06 15:03:06;;;;;;;5.63;2.17;;;;;;;;;;5015098;28;20460;-75
2023/09/06 15:05:32;;;;;;;3.55;2.38;;;;;;;;;;5016229;28;20263;-75
2023/09/06 15:07:57;;;;;;;3.08;2.25;;;;;;;;;;4998233;28;20117;-76